sensor_id;sensor_type;location;lat;lon;timestamp;noise_LAeq;noise_LA_min;noise_LA_max;noise_LA01;noise_LA95
53702;Laerm;39594;52.194;9.886;2023-04-25T00:00:07;5.00;5.00;5.00;;
53702;Laerm;39594;52.194;9.886;2023-04-25T00:02:33;5.00;5.00;5.00;;
53702;Laerm;39594;52.194;9.886;2023-04-25T00:04:59;5.00;5.00;5.00;;
53702;Laerm;39594;52.194;9.886;2023-04-25T00:07:26;5.00;5.00;5.00;;
53702;Laerm;39594;52.194;9.886;2023-04-25T00:09:52;5.00;5.00;5.00;;
53702;Laerm;39594;52.194;9.886;2023-04-25T00:12:17;5.00;5.00;5.00;;
53702;Laerm;39594;52.194;9.886;2023-04-25T00:14:42;5.00;5.00;5.00;;
53702;Laerm;39594;52.194;9.886;2023-04-25T00:17:07;5.00;5.00;5.00;;
53702;Laerm;39594;52.194;9.886;2023-04-25T00:19:32;5.00;5.00;5.00;;
53702;Laerm;39594;52.194;9.886;2023-04-25T00:22:02;5.00;5.00;5.00;;
53702;Laerm;39594;52.194;9.886;2023-04-25T00:24:28;5.00;5.00;5.00;;
53702;Laerm;39594;52.194;9.886;2023-04-25T00:26:53;5.00;5.00;5.00;;
53702;Laerm;39594;52.194;9.886;2023-04-25T00:29:18;5.00;5.00;5.00;;
53702;Laerm;39594;52.194;9.886;2023-04-25T00:31:43;5.00;5.00;5.00;;
53702;Laerm;39594;52.194;9.886;2023-04-25T00:34:08;5.00;5.00;5.00;;
53702;Laerm;39594;52.194;9.886;2023-04-25T00:36:33;5.00;5.00;5.00;;
53702;Laerm;39594;52.194;9.886;2023-04-25T00:38:59;5.00;5.00;5.00;;
53702;Laerm;39594;52.194;9.886;2023-04-25T00:41:25;5.00;5.00;5.00;;
53702;Laerm;39594;52.194;9.886;2023-04-25T00:43:50;5.00;5.00;5.00;;
53702;Laerm;39594;52.194;9.886;2023-04-25T00:46:16;5.00;5.00;5.00;;
53702;Laerm;39594;52.194;9.886;2023-04-25T00:48:42;5.00;5.00;5.00;;
53702;Laerm;39594;52.194;9.886;2023-04-25T00:51:07;5.00;5.00;5.00;;
53702;Laerm;39594;52.194;9.886;2023-04-25T00:53:32;5.00;5.00;5.00;;
53702;Laerm;39594;52.194;9.886;2023-04-25T00:55:57;5.00;5.00;5.00;;
53702;Laerm;39594;52.194;9.886;2023-04-25T00:58:23;5.00;5.00;5.00;;
53702;Laerm;39594;52.194;9.886;2023-04-25T01:00:48;5.00;5.00;5.00;;
53702;Laerm;39594;52.194;9.886;2023-04-25T01:03:15;5.00;5.00;5.00;;
53702;Laerm;39594;52.194;9.886;2023-04-25T01:05:46;5.00;5.00;5.00;;
53702;Laerm;39594;52.194;9.886;2023-04-25T01:08:12;5.00;5.00;5.00;;
53702;Laerm;39594;52.194;9.886;2023-04-25T01:10:38;5.00;5.00;5.00;;
53702;Laerm;39594;52.194;9.886;2023-04-25T01:13:03;5.00;5.00;5.00;;
53702;Laerm;39594;52.194;9.886;2023-04-25T01:15:28;5.00;5.00;5.00;;
53702;Laerm;39594;52.194;9.886;2023-04-25T01:17:53;5.00;5.00;5.00;;
53702;Laerm;39594;52.194;9.886;2023-04-25T01:20:20;5.00;5.00;5.00;;
53702;Laerm;39594;52.194;9.886;2023-04-25T01:22:46;5.00;5.00;5.00;;
53702;Laerm;39594;52.194;9.886;2023-04-25T01:25:11;5.00;5.00;5.00;;
53702;Laerm;39594;52.194;9.886;2023-04-25T01:27:36;5.00;5.00;5.00;;
53702;Laerm;39594;52.194;9.886;2023-04-25T01:30:02;5.00;5.00;5.00;;
53702;Laerm;39594;52.194;9.886;2023-04-25T01:32:28;5.00;5.00;5.00;;
53702;Laerm;39594;52.194;9.886;2023-04-25T01:34:53;5.00;5.00;5.00;;
53702;Laerm;39594;52.194;9.886;2023-04-25T01:37:18;5.00;5.00;5.00;;
53702;Laerm;39594;52.194;9.886;2023-04-25T01:39:44;5.00;5.00;5.00;;
53702;Laerm;39594;52.194;9.886;2023-04-25T01:42:09;5.00;5.00;5.00;;
53702;Laerm;39594;52.194;9.886;2023-04-25T01:44:34;5.00;5.00;5.00;;
53702;Laerm;39594;52.194;9.886;2023-04-25T01:47:00;5.00;5.00;5.00;;
53702;Laerm;39594;52.194;9.886;2023-04-25T01:49:25;5.00;5.00;5.00;;
53702;Laerm;39594;52.194;9.886;2023-04-25T01:51:50;5.00;5.00;5.00;;
53702;Laerm;39594;52.194;9.886;2023-04-25T01:54:15;5.00;5.00;5.00;;
53702;Laerm;39594;52.194;9.886;2023-04-25T01:56:41;5.00;5.00;5.00;;
53702;Laerm;39594;52.194;9.886;2023-04-25T01:59:07;5.00;5.00;5.00;;
53702;Laerm;39594;52.194;9.886;2023-04-25T02:01:32;5.00;5.00;5.00;;
53702;Laerm;39594;52.194;9.886;2023-04-25T02:03:57;5.00;5.00;5.00;;
53702;Laerm;39594;52.194;9.886;2023-04-25T02:06:22;5.00;5.00;5.00;;
53702;Laerm;39594;52.194;9.886;2023-04-25T02:08:48;5.00;5.00;5.00;;
53702;Laerm;39594;52.194;9.886;2023-04-25T02:11:13;5.00;5.00;5.00;;
53702;Laerm;39594;52.194;9.886;2023-04-25T02:13:38;5.00;5.00;5.00;;
53702;Laerm;39594;52.194;9.886;2023-04-25T02:16:03;5.00;5.00;5.00;;
53702;Laerm;39594;52.194;9.886;2023-04-25T02:18:29;5.00;5.00;5.00;;
53702;Laerm;39594;52.194;9.886;2023-04-25T02:20:54;5.00;5.00;5.00;;
53702;Laerm;39594;52.194;9.886;2023-04-25T02:23:19;5.00;5.00;5.00;;
53702;Laerm;39594;52.194;9.886;2023-04-25T02:25:45;5.00;5.00;5.00;;
53702;Laerm;39594;52.194;9.886;2023-04-25T02:28:10;5.00;5.00;5.00;;
53702;Laerm;39594;52.194;9.886;2023-04-25T02:30:35;5.00;5.00;5.00;;
53702;Laerm;39594;52.194;9.886;2023-04-25T02:33:01;5.00;5.00;5.00;;
53702;Laerm;39594;52.194;9.886;2023-04-25T02:35:26;5.00;5.00;5.00;;
53702;Laerm;39594;52.194;9.886;2023-04-25T02:37:51;5.00;5.00;5.00;;
53702;Laerm;39594;52.194;9.886;2023-04-25T02:40:16;5.00;5.00;5.00;;
53702;Laerm;39594;52.194;9.886;2023-04-25T02:42:41;5.00;5.00;5.00;;
53702;Laerm;39594;52.194;9.886;2023-04-25T02:45:07;5.00;5.00;5.00;;
53702;Laerm;39594;52.194;9.886;2023-04-25T02:47:32;5.00;5.00;5.00;;
53702;Laerm;39594;52.194;9.886;2023-04-25T02:49:57;5.00;5.00;5.00;;
53702;Laerm;39594;52.194;9.886;2023-04-25T02:52:22;5.00;5.00;5.00;;
53702;Laerm;39594;52.194;9.886;2023-04-25T02:54:48;5.00;5.00;5.00;;
53702;Laerm;39594;52.194;9.886;2023-04-25T02:57:13;5.00;5.00;5.00;;
53702;Laerm;39594;52.194;9.886;2023-04-25T02:59:38;5.00;5.00;5.00;;
53702;Laerm;39594;52.194;9.886;2023-04-25T03:02:03;5.00;5.00;5.00;;
53702;Laerm;39594;52.194;9.886;2023-04-25T03:04:29;5.00;5.00;5.00;;
53702;Laerm;39594;52.194;9.886;2023-04-25T03:06:54;5.00;5.00;5.00;;
53702;Laerm;39594;52.194;9.886;2023-04-25T03:09:20;5.00;5.00;5.00;;
53702;Laerm;39594;52.194;9.886;2023-04-25T03:11:45;5.00;5.00;5.00;;
53702;Laerm;39594;52.194;9.886;2023-04-25T03:14:11;5.00;5.00;5.00;;
53702;Laerm;39594;52.194;9.886;2023-04-25T03:16:36;5.00;5.00;5.00;;
53702;Laerm;39594;52.194;9.886;2023-04-25T03:19:02;5.00;5.00;5.00;;
53702;Laerm;39594;52.194;9.886;2023-04-25T03:21:27;5.00;5.00;5.00;;
53702;Laerm;39594;52.194;9.886;2023-04-25T03:23:52;5.00;5.00;5.00;;
53702;Laerm;39594;52.194;9.886;2023-04-25T03:26:17;5.00;5.00;5.00;;
53702;Laerm;39594;52.194;9.886;2023-04-25T03:28:42;5.00;5.00;5.00;;
53702;Laerm;39594;52.194;9.886;2023-04-25T03:31:08;5.00;5.00;5.00;;
53702;Laerm;39594;52.194;9.886;2023-04-25T03:33:33;5.00;5.00;5.00;;
53702;Laerm;39594;52.194;9.886;2023-04-25T03:35:58;5.00;5.00;5.00;;
53702;Laerm;39594;52.194;9.886;2023-04-25T03:38:23;5.00;5.00;5.00;;
53702;Laerm;39594;52.194;9.886;2023-04-25T03:40:49;5.00;5.00;5.00;;
53702;Laerm;39594;52.194;9.886;2023-04-25T03:43:15;5.00;5.00;5.00;;
53702;Laerm;39594;52.194;9.886;2023-04-25T03:45:40;5.00;5.00;5.00;;
53702;Laerm;39594;52.194;9.886;2023-04-25T03:48:06;5.00;5.00;5.00;;
53702;Laerm;39594;52.194;9.886;2023-04-25T03:50:31;5.00;5.00;5.00;;
53702;Laerm;39594;52.194;9.886;2023-04-25T03:53:02;5.00;5.00;5.00;;
53702;Laerm;39594;52.194;9.886;2023-04-25T03:55:27;5.00;5.00;5.00;;
53702;Laerm;39594;52.194;9.886;2023-04-25T03:57:53;5.00;5.00;5.00;;
53702;Laerm;39594;52.194;9.886;2023-04-25T04:00:18;5.00;5.00;5.00;;
53702;Laerm;39594;52.194;9.886;2023-04-25T04:02:43;5.00;5.00;5.00;;
53702;Laerm;39594;52.194;9.886;2023-04-25T04:05:08;5.00;5.00;5.00;;
53702;Laerm;39594;52.194;9.886;2023-04-25T04:07:34;5.00;5.00;5.00;;
53702;Laerm;39594;52.194;9.886;2023-04-25T04:10:04;5.00;5.00;5.00;;
53702;Laerm;39594;52.194;9.886;2023-04-25T04:12:30;5.00;5.00;5.00;;
53702;Laerm;39594;52.194;9.886;2023-04-25T04:14:55;5.00;5.00;5.00;;
53702;Laerm;39594;52.194;9.886;2023-04-25T04:17:20;5.00;5.00;5.00;;
53702;Laerm;39594;52.194;9.886;2023-04-25T04:19:46;5.00;5.00;5.00;;
53702;Laerm;39594;52.194;9.886;2023-04-25T04:22:11;5.00;5.00;5.00;;
53702;Laerm;39594;52.194;9.886;2023-04-25T04:24:36;5.00;5.00;5.00;;
53702;Laerm;39594;52.194;9.886;2023-04-25T04:27:01;5.00;5.00;5.00;;
53702;Laerm;39594;52.194;9.886;2023-04-25T04:29:26;5.00;5.00;5.00;;
53702;Laerm;39594;52.194;9.886;2023-04-25T04:31:52;5.00;5.00;5.00;;
53702;Laerm;39594;52.194;9.886;2023-04-25T04:34:17;5.00;5.00;5.00;;
53702;Laerm;39594;52.194;9.886;2023-04-25T04:36:43;5.00;5.00;5.00;;
53702;Laerm;39594;52.194;9.886;2023-04-25T04:39:11;5.00;5.00;5.00;;
53702;Laerm;39594;52.194;9.886;2023-04-25T04:41:37;5.00;5.00;5.00;;
53702;Laerm;39594;52.194;9.886;2023-04-25T04:44:02;5.00;5.00;5.00;;
53702;Laerm;39594;52.194;9.886;2023-04-25T04:46:27;5.00;5.00;5.00;;
53702;Laerm;39594;52.194;9.886;2023-04-25T04:48:53;5.00;5.00;5.00;;
53702;Laerm;39594;52.194;9.886;2023-04-25T04:51:19;5.00;5.00;5.00;;
53702;Laerm;39594;52.194;9.886;2023-04-25T04:53:44;5.00;5.00;5.00;;
53702;Laerm;39594;52.194;9.886;2023-04-25T04:56:09;5.00;5.00;5.00;;
53702;Laerm;39594;52.194;9.886;2023-04-25T04:58:34;5.00;5.00;5.00;;
53702;Laerm;39594;52.194;9.886;2023-04-25T05:01:01;5.00;5.00;5.00;;
53702;Laerm;39594;52.194;9.886;2023-04-25T05:03:26;5.00;5.00;5.00;;
53702;Laerm;39594;52.194;9.886;2023-04-25T05:05:54;5.00;5.00;5.00;;
53702;Laerm;39594;52.194;9.886;2023-04-25T05:08:19;5.00;5.00;5.00;;
53702;Laerm;39594;52.194;9.886;2023-04-25T05:10:44;5.00;5.00;5.00;;
53702;Laerm;39594;52.194;9.886;2023-04-25T05:13:10;5.00;5.00;5.00;;
53702;Laerm;39594;52.194;9.886;2023-04-25T05:15:35;5.00;5.00;5.00;;
53702;Laerm;39594;52.194;9.886;2023-04-25T05:18:00;5.00;5.00;5.00;;
53702;Laerm;39594;52.194;9.886;2023-04-25T05:20:26;5.00;5.00;5.00;;
53702;Laerm;39594;52.194;9.886;2023-04-25T05:22:51;5.00;5.00;5.00;;
53702;Laerm;39594;52.194;9.886;2023-04-25T05:25:16;5.00;5.00;5.00;;
53702;Laerm;39594;52.194;9.886;2023-04-25T05:27:44;5.00;5.00;5.00;;
53702;Laerm;39594;52.194;9.886;2023-04-25T05:30:10;5.00;5.00;5.00;;
53702;Laerm;39594;52.194;9.886;2023-04-25T05:32:39;5.00;5.00;5.00;;
53702;Laerm;39594;52.194;9.886;2023-04-25T05:35:05;5.00;5.00;5.00;;
53702;Laerm;39594;52.194;9.886;2023-04-25T05:37:31;5.00;5.00;5.00;;
53702;Laerm;39594;52.194;9.886;2023-04-25T05:39:57;5.00;5.00;5.00;;
53702;Laerm;39594;52.194;9.886;2023-04-25T05:42:22;5.00;5.00;5.00;;
53702;Laerm;39594;52.194;9.886;2023-04-25T05:44:48;5.00;5.00;5.00;;
53702;Laerm;39594;52.194;9.886;2023-04-25T05:47:13;5.00;5.00;5.00;;
53702;Laerm;39594;52.194;9.886;2023-04-25T05:49:38;5.00;5.00;5.00;;
53702;Laerm;39594;52.194;9.886;2023-04-25T05:52:03;5.00;5.00;5.00;;
53702;Laerm;39594;52.194;9.886;2023-04-25T05:54:29;5.00;5.00;5.00;;
53702;Laerm;39594;52.194;9.886;2023-04-25T05:56:55;5.00;5.00;5.00;;
53702;Laerm;39594;52.194;9.886;2023-04-25T05:59:20;5.00;5.00;5.00;;
53702;Laerm;39594;52.194;9.886;2023-04-25T06:01:46;5.00;5.00;5.00;;
53702;Laerm;39594;52.194;9.886;2023-04-25T06:04:12;5.00;5.00;5.00;;
53702;Laerm;39594;52.194;9.886;2023-04-25T06:06:37;5.00;5.00;5.00;;
53702;Laerm;39594;52.194;9.886;2023-04-25T06:09:02;5.00;5.00;5.00;;
53702;Laerm;39594;52.194;9.886;2023-04-25T06:11:27;5.00;5.00;5.00;;
53702;Laerm;39594;52.194;9.886;2023-04-25T06:13:53;5.00;5.00;5.00;;
53702;Laerm;39594;52.194;9.886;2023-04-25T06:16:19;5.00;5.00;5.00;;
53702;Laerm;39594;52.194;9.886;2023-04-25T06:18:44;5.00;5.00;5.00;;
53702;Laerm;39594;52.194;9.886;2023-04-25T06:21:09;5.00;5.00;5.00;;
53702;Laerm;39594;52.194;9.886;2023-04-25T06:23:34;5.00;5.00;5.00;;
53702;Laerm;39594;52.194;9.886;2023-04-25T06:26:01;5.00;5.00;5.00;;
53702;Laerm;39594;52.194;9.886;2023-04-25T06:28:26;5.00;5.00;5.00;;
53702;Laerm;39594;52.194;9.886;2023-04-25T06:30:51;5.00;5.00;5.00;;
53702;Laerm;39594;52.194;9.886;2023-04-25T06:33:16;5.00;5.00;5.00;;
53702;Laerm;39594;52.194;9.886;2023-04-25T06:35:41;5.00;5.00;5.00;;
53702;Laerm;39594;52.194;9.886;2023-04-25T06:38:07;5.00;5.00;5.00;;
53702;Laerm;39594;52.194;9.886;2023-04-25T06:40:32;5.00;5.00;5.00;;
53702;Laerm;39594;52.194;9.886;2023-04-25T06:42:57;5.00;5.00;5.00;;
53702;Laerm;39594;52.194;9.886;2023-04-25T06:45:23;5.00;5.00;5.00;;
53702;Laerm;39594;52.194;9.886;2023-04-25T06:47:48;5.00;5.00;5.00;;
53702;Laerm;39594;52.194;9.886;2023-04-25T06:50:13;5.00;5.00;5.00;;
53702;Laerm;39594;52.194;9.886;2023-04-25T06:52:38;5.00;5.00;5.00;;
53702;Laerm;39594;52.194;9.886;2023-04-25T06:55:03;5.00;5.00;5.00;;
53702;Laerm;39594;52.194;9.886;2023-04-25T06:57:30;5.00;5.00;5.00;;
53702;Laerm;39594;52.194;9.886;2023-04-25T06:59:55;5.00;5.00;5.00;;
53702;Laerm;39594;52.194;9.886;2023-04-25T07:02:20;5.00;5.00;5.00;;
53702;Laerm;39594;52.194;9.886;2023-04-25T07:04:47;5.00;5.00;5.00;;
53702;Laerm;39594;52.194;9.886;2023-04-25T07:07:12;5.00;5.00;5.00;;
53702;Laerm;39594;52.194;9.886;2023-04-25T07:09:37;5.00;5.00;5.00;;
53702;Laerm;39594;52.194;9.886;2023-04-25T07:12:03;5.00;5.00;5.00;;
53702;Laerm;39594;52.194;9.886;2023-04-25T07:14:28;5.00;5.00;5.00;;
53702;Laerm;39594;52.194;9.886;2023-04-25T07:16:53;5.00;5.00;5.00;;
53702;Laerm;39594;52.194;9.886;2023-04-25T07:19:20;5.00;5.00;5.00;;
53702;Laerm;39594;52.194;9.886;2023-04-25T07:21:45;5.00;5.00;5.00;;
53702;Laerm;39594;52.194;9.886;2023-04-25T07:24:11;5.00;5.00;5.00;;
53702;Laerm;39594;52.194;9.886;2023-04-25T07:26:36;5.00;5.00;5.00;;
53702;Laerm;39594;52.194;9.886;2023-04-25T07:29:04;5.00;5.00;5.00;;
53702;Laerm;39594;52.194;9.886;2023-04-25T07:31:29;5.00;5.00;5.00;;
53702;Laerm;39594;52.194;9.886;2023-04-25T07:33:55;5.00;5.00;5.00;;
53702;Laerm;39594;52.194;9.886;2023-04-25T07:36:20;5.00;5.00;5.00;;
53702;Laerm;39594;52.194;9.886;2023-04-25T07:38:45;5.00;5.00;5.00;;
53702;Laerm;39594;52.194;9.886;2023-04-25T07:41:11;94.80;5.00;112.77;;
53702;Laerm;39594;52.194;9.886;2023-04-25T07:43:36;83.46;5.00;109.41;;
53702;Laerm;39594;52.194;9.886;2023-04-25T07:46:01;68.09;42.09;102.26;;
53702;Laerm;39594;52.194;9.886;2023-04-25T07:48:27;64.28;39.58;80.95;;
53702;Laerm;39594;52.194;9.886;2023-04-25T07:50:56;64.80;42.35;76.49;;
53702;Laerm;39594;52.194;9.886;2023-04-25T07:53:21;70.22;5.00;105.13;;
53702;Laerm;39594;52.194;9.886;2023-04-25T07:55:46;61.39;39.92;73.87;;
53702;Laerm;39594;52.194;9.886;2023-04-25T07:58:12;62.53;41.14;76.82;;
53702;Laerm;39594;52.194;9.886;2023-04-25T08:00:37;62.36;41.06;75.78;;
53702;Laerm;39594;52.194;9.886;2023-04-25T08:03:03;65.90;42.85;85.12;;
53702;Laerm;39594;52.194;9.886;2023-04-25T08:05:28;59.41;39.46;70.23;;
53702;Laerm;39594;52.194;9.886;2023-04-25T08:07:53;63.14;44.11;77.62;;
53702;Laerm;39594;52.194;9.886;2023-04-25T08:10:20;62.70;39.81;79.92;;
53702;Laerm;39594;52.194;9.886;2023-04-25T08:12:47;64.45;43.14;78.77;;
53702;Laerm;39594;52.194;9.886;2023-04-25T08:15:13;67.66;42.82;84.69;;
53702;Laerm;39594;52.194;9.886;2023-04-25T08:17:38;65.90;41.14;81.21;;
53702;Laerm;39594;52.194;9.886;2023-04-25T08:20:04;62.50;39.92;77.11;;
53702;Laerm;39594;52.194;9.886;2023-04-25T08:22:30;62.48;40.03;75.97;;
53702;Laerm;39594;52.194;9.886;2023-04-25T08:24:56;60.57;39.46;72.25;;
53702;Laerm;39594;52.194;9.886;2023-04-25T08:27:21;61.76;36.69;81.08;;
53702;Laerm;39594;52.194;9.886;2023-04-25T08:29:46;64.19;41.38;78.91;;
53702;Laerm;39594;52.194;9.886;2023-04-25T08:32:12;63.58;43.09;81.28;;
53702;Laerm;39594;52.194;9.886;2023-04-25T08:34:37;63.59;42.03;79.97;;
53702;Laerm;39594;52.194;9.886;2023-04-25T08:37:04;64.84;40.13;79.25;;
53702;Laerm;39594;52.194;9.886;2023-04-25T08:39:30;57.88;38.47;70.34;;
53702;Laerm;39594;52.194;9.886;2023-04-25T08:41:55;57.30;38.81;72.20;;
53702;Laerm;39594;52.194;9.886;2023-04-25T08:44:21;62.04;40.71;72.27;;
53702;Laerm;39594;52.194;9.886;2023-04-25T08:46:47;64.44;43.44;78.05;;
53702;Laerm;39594;52.194;9.886;2023-04-25T08:49:14;66.83;45.40;80.64;;
53702;Laerm;39594;52.194;9.886;2023-04-25T08:51:44;63.65;39.70;78.70;;
53702;Laerm;39594;52.194;9.886;2023-04-25T08:54:12;65.25;45.86;77.69;;
53702;Laerm;39594;52.194;9.886;2023-04-25T08:56:38;64.38;40.98;80.20;;
53702;Laerm;39594;52.194;9.886;2023-04-25T08:59:03;65.67;40.13;78.98;;
53702;Laerm;39594;52.194;9.886;2023-04-25T09:01:29;59.58;39.81;72.08;;
53702;Laerm;39594;52.194;9.886;2023-04-25T09:03:54;64.06;39.81;77.83;;
53702;Laerm;39594;52.194;9.886;2023-04-25T09:06:19;61.72;40.33;72.40;;
53702;Laerm;39594;52.194;9.886;2023-04-25T09:08:45;58.79;39.08;71.39;;
53702;Laerm;39594;52.194;9.886;2023-04-25T09:11:10;65.55;41.06;85.15;;
53702;Laerm;39594;52.194;9.886;2023-04-25T09:13:37;62.60;40.98;81.58;;
53702;Laerm;39594;52.194;9.886;2023-04-25T09:16:02;59.09;38.81;72.37;;
53702;Laerm;39594;52.194;9.886;2023-04-25T09:18:28;60.66;41.41;74.94;;
53702;Laerm;39594;52.194;9.886;2023-04-25T09:21:10;60.43;40.98;73.37;;
53702;Laerm;39594;52.194;9.886;2023-04-25T09:23:45;61.96;41.61;77.99;;
53702;Laerm;39594;52.194;9.886;2023-04-25T09:26:17;62.33;43.29;79.44;;
53702;Laerm;39594;52.194;9.886;2023-04-25T09:28:43;60.13;41.41;77.65;;
53702;Laerm;39594;52.194;9.886;2023-04-25T09:31:29;63.93;40.03;75.47;;
53702;Laerm;39594;52.194;9.886;2023-04-25T09:34:00;61.34;40.03;73.60;;
53702;Laerm;39594;52.194;9.886;2023-04-25T09:36:29;61.15;39.34;77.12;;
53702;Laerm;39594;52.194;9.886;2023-04-25T09:38:54;64.46;40.79;78.01;;
53702;Laerm;39594;52.194;9.886;2023-04-25T09:41:23;65.25;42.35;80.66;;
53702;Laerm;39594;52.194;9.886;2023-04-25T09:43:49;60.65;40.63;73.40;;
53702;Laerm;39594;52.194;9.886;2023-04-25T09:46:15;61.98;39.21;76.18;;
53702;Laerm;39594;52.194;9.886;2023-04-25T09:48:40;61.95;42.16;78.63;;
53702;Laerm;39594;52.194;9.886;2023-04-25T09:51:13;58.41;37.32;73.17;;
53702;Laerm;39594;52.194;9.886;2023-04-25T09:53:39;59.29;39.34;73.09;;
53702;Laerm;39594;52.194;9.886;2023-04-25T09:56:05;63.14;41.30;77.44;;
53702;Laerm;39594;52.194;9.886;2023-04-25T09:58:31;63.61;41.61;76.57;;
53702;Laerm;39594;52.194;9.886;2023-04-25T10:00:59;60.85;43.04;75.18;;
53702;Laerm;39594;52.194;9.886;2023-04-25T10:03:25;63.57;44.31;77.19;;
53702;Laerm;39594;52.194;9.886;2023-04-25T10:05:50;64.17;42.35;75.55;;
53702;Laerm;39594;52.194;9.886;2023-04-25T10:08:17;57.11;39.92;69.97;;
53702;Laerm;39594;52.194;9.886;2023-04-25T10:10:42;65.31;42.35;79.22;;
53702;Laerm;39594;52.194;9.886;2023-04-25T10:13:08;64.30;38.81;79.81;;
53702;Laerm;39594;52.194;9.886;2023-04-25T10:15:34;64.01;40.54;80.64;;
53702;Laerm;39594;52.194;9.886;2023-04-25T10:18:00;62.13;38.81;73.59;;
53702;Laerm;39594;52.194;9.886;2023-04-25T10:20:25;60.30;40.23;73.13;;
53702;Laerm;39594;52.194;9.886;2023-04-25T10:22:51;64.08;37.12;79.72;;
53702;Laerm;39594;52.194;9.886;2023-04-25T10:25:19;62.89;39.58;79.09;;
53702;Laerm;39594;52.194;9.886;2023-04-25T10:27:44;62.35;38.21;86.23;;
53702;Laerm;39594;52.194;9.886;2023-04-25T10:30:10;62.96;38.37;76.24;;
53702;Laerm;39594;52.194;9.886;2023-04-25T10:32:39;66.96;40.13;84.41;;
53702;Laerm;39594;52.194;9.886;2023-04-25T10:37:38;61.97;39.34;78.25;;
53702;Laerm;39594;52.194;9.886;2023-04-25T10:40:09;61.19;38.21;76.99;;
53702;Laerm;39594;52.194;9.886;2023-04-25T10:42:35;63.43;40.13;77.55;;
53702;Laerm;39594;52.194;9.886;2023-04-25T10:45:01;65.00;38.67;78.50;;
53702;Laerm;39594;52.194;9.886;2023-04-25T10:47:36;61.11;38.81;75.94;;
53702;Laerm;39594;52.194;9.886;2023-04-25T10:50:08;60.69;37.52;81.75;;
53702;Laerm;39594;52.194;9.886;2023-04-25T10:52:33;64.03;41.06;76.22;;
53702;Laerm;39594;52.194;9.886;2023-04-25T10:54:59;63.24;41.53;74.50;;
53702;Laerm;39594;52.194;9.886;2023-04-25T11:00:00;66.32;5.00;90.53;;
53702;Laerm;39594;52.194;9.886;2023-04-25T11:02:26;63.19;39.58;79.27;;
53702;Laerm;39594;52.194;9.886;2023-04-25T11:04:52;63.70;41.53;77.12;;
53702;Laerm;39594;52.194;9.886;2023-04-25T11:07:22;60.27;40.03;72.99;;
53702;Laerm;39594;52.194;9.886;2023-04-25T11:09:50;63.32;39.46;77.83;;
53702;Laerm;39594;52.194;9.886;2023-04-25T11:12:16;59.75;39.70;72.50;;
53702;Laerm;39594;52.194;9.886;2023-04-25T11:14:42;62.14;39.08;75.88;;
53702;Laerm;39594;52.194;9.886;2023-04-25T11:17:07;58.24;37.32;71.01;;
53702;Laerm;39594;52.194;9.886;2023-04-25T11:19:32;61.75;38.37;76.54;;
53702;Laerm;39594;52.194;9.886;2023-04-25T11:21:59;61.38;39.92;79.53;;
53702;Laerm;39594;52.194;9.886;2023-04-25T11:24:32;61.91;38.95;75.19;;
53702;Laerm;39594;52.194;9.886;2023-04-25T11:27:01;60.56;37.70;73.10;;
53702;Laerm;39594;52.194;9.886;2023-04-25T11:29:29;62.00;39.21;74.63;;
53702;Laerm;39594;52.194;9.886;2023-04-25T11:31:58;63.38;43.58;76.30;;
53702;Laerm;39594;52.194;9.886;2023-04-25T11:34:25;61.85;37.32;70.58;;
53702;Laerm;39594;52.194;9.886;2023-04-25T11:36:50;62.19;40.43;80.19;;
53702;Laerm;39594;52.194;9.886;2023-04-25T11:39:19;62.35;42.76;71.43;;
53702;Laerm;39594;52.194;9.886;2023-04-25T11:41:44;65.32;38.37;79.29;;
53702;Laerm;39594;52.194;9.886;2023-04-25T11:44:09;64.73;42.88;77.94;;
53702;Laerm;39594;52.194;9.886;2023-04-25T11:46:35;64.97;42.36;77.25;;
53702;Laerm;39594;52.194;9.886;2023-04-25T11:49:00;66.77;41.75;82.37;;
53702;Laerm;39594;52.194;9.886;2023-04-25T11:51:26;62.19;40.03;75.32;;
53702;Laerm;39594;52.194;9.886;2023-04-25T11:53:52;61.96;40.71;71.67;;
53702;Laerm;39594;52.194;9.886;2023-04-25T11:56:17;62.42;41.61;77.90;;
53702;Laerm;39594;52.194;9.886;2023-04-25T12:01:26;61.29;38.81;72.82;;
53702;Laerm;39594;52.194;9.886;2023-04-25T12:03:52;61.35;40.33;71.38;;
53702;Laerm;39594;52.194;9.886;2023-04-25T12:06:17;67.21;49.08;85.18;;
53702;Laerm;39594;52.194;9.886;2023-04-25T12:11:26;68.18;52.06;82.65;;
53702;Laerm;39594;52.194;9.886;2023-04-25T12:13:52;65.64;47.36;78.03;;
53702;Laerm;39594;52.194;9.886;2023-04-25T12:16:18;64.64;45.51;77.77;;
53702;Laerm;39594;52.194;9.886;2023-04-25T12:18:43;64.62;42.88;76.64;;
53702;Laerm;39594;52.194;9.886;2023-04-25T12:21:09;66.23;43.54;85.32;;
53702;Laerm;39594;52.194;9.886;2023-04-25T12:23:34;63.65;39.92;80.74;;
53702;Laerm;39594;52.194;9.886;2023-04-25T12:26:03;66.05;43.90;78.55;;
53702;Laerm;39594;52.194;9.886;2023-04-25T12:28:28;63.97;41.38;80.05;;
53702;Laerm;39594;52.194;9.886;2023-04-25T12:33:25;63.47;40.23;81.57;;
53702;Laerm;39594;52.194;9.886;2023-04-25T12:35:52;63.79;43.04;75.40;;
53702;Laerm;39594;52.194;9.886;2023-04-25T12:38:36;63.42;40.53;78.31;;
53702;Laerm;39594;52.194;9.886;2023-04-25T12:41:02;63.69;40.13;77.62;;
53702;Laerm;39594;52.194;9.886;2023-04-25T12:43:27;63.10;40.43;85.05;;
53702;Laerm;39594;52.194;9.886;2023-04-25T12:45:53;64.50;44.08;76.42;;
53702;Laerm;39594;52.194;9.886;2023-04-25T12:48:18;62.00;44.47;73.93;;
53702;Laerm;39594;52.194;9.886;2023-04-25T12:50:44;65.27;44.23;80.50;;
53702;Laerm;39594;52.194;9.886;2023-04-25T12:53:09;65.82;45.91;85.42;;
53702;Laerm;39594;52.194;9.886;2023-04-25T12:55:35;67.10;47.16;84.42;;
53702;Laerm;39594;52.194;9.886;2023-04-25T12:58:00;65.10;43.09;80.42;;
53702;Laerm;39594;52.194;9.886;2023-04-25T13:00:25;64.59;44.43;76.37;;
53702;Laerm;39594;52.194;9.886;2023-04-25T13:02:51;64.58;42.59;77.22;;
53702;Laerm;39594;52.194;9.886;2023-04-25T13:05:16;64.79;41.68;79.74;;
53702;Laerm;39594;52.194;9.886;2023-04-25T13:07:41;66.71;44.97;84.23;;
53702;Laerm;39594;52.194;9.886;2023-04-25T13:10:07;66.68;48.40;78.70;;
53702;Laerm;39594;52.194;9.886;2023-04-25T13:12:32;63.67;44.43;78.82;;
53702;Laerm;39594;52.194;9.886;2023-04-25T13:14:57;65.59;46.76;80.10;;
53702;Laerm;39594;52.194;9.886;2023-04-25T13:17:23;64.50;41.30;80.50;;
53702;Laerm;39594;52.194;9.886;2023-04-25T13:19:48;62.31;40.33;77.85;;
53702;Laerm;39594;52.194;9.886;2023-04-25T13:22:13;64.38;39.08;80.99;;
53702;Laerm;39594;52.194;9.886;2023-04-25T13:24:40;64.62;43.51;80.29;;
53702;Laerm;39594;52.194;9.886;2023-04-25T13:27:05;64.54;42.71;81.98;;
53702;Laerm;39594;52.194;9.886;2023-04-25T13:29:31;65.40;46.73;84.09;;
53702;Laerm;39594;52.194;9.886;2023-04-25T13:31:56;63.46;40.80;78.33;;
53702;Laerm;39594;52.194;9.886;2023-04-25T13:34:21;62.02;41.22;72.35;;
53702;Laerm;39594;52.194;9.886;2023-04-25T13:36:49;65.51;47.40;77.77;;
53702;Laerm;39594;52.194;9.886;2023-04-25T13:39:14;62.19;44.94;81.79;;
53702;Laerm;39594;52.194;9.886;2023-04-25T13:41:39;64.35;41.75;77.86;;
53702;Laerm;39594;52.194;9.886;2023-04-25T13:44:04;62.89;43.81;79.74;;
53702;Laerm;39594;52.194;9.886;2023-04-25T13:46:30;64.02;43.14;75.07;;
53702;Laerm;39594;52.194;9.886;2023-04-25T13:48:55;61.34;43.63;70.39;;
53702;Laerm;39594;52.194;9.886;2023-04-25T13:51:20;63.67;42.58;78.88;;
53702;Laerm;39594;52.194;9.886;2023-04-25T13:53:45;67.37;43.81;82.14;;
53702;Laerm;39594;52.194;9.886;2023-04-25T13:56:11;64.90;41.75;72.92;;
53702;Laerm;39594;52.194;9.886;2023-04-25T13:58:36;63.38;39.81;74.25;;
53702;Laerm;39594;52.194;9.886;2023-04-25T14:01:01;62.73;40.43;74.90;;
53702;Laerm;39594;52.194;9.886;2023-04-25T14:03:28;65.97;44.73;79.99;;
53702;Laerm;39594;52.194;9.886;2023-04-25T14:05:53;66.11;39.46;80.59;;
53702;Laerm;39594;52.194;9.886;2023-04-25T14:08:18;62.65;39.23;74.31;;